Time;durP1;ratioP1;P1;durP2;ratioP2;P2;SDS_P1;SDS_P2;PMS_P1;PMS_P2;Temp;Humidity;BMP_temperature;BMP_pressure;BME280_temperature;BME280_humidity;BME280_pressure;Samples;Min_cycle;Max_cycle;Signal;HPM_P1;HPM_P2
2023/06/04 00:00:16;;;;;;;3.88;2.45;;;11.60;99.90;;;;;;4948725;28;20226;-87
2023/06/04 00:02:43;;;;;;;3.33;2.80;;;11.50;99.90;;;;;;4936076;29;20516;-84
2023/06/04 00:05:10;;;;;;;5.70;2.80;;;11.40;99.90;;;;;;4931489;29;20559;-81
2023/06/04 00:07:37;;;;;;;3.08;2.20;;;11.50;99.90;;;;;;4939753;29;20513;-85
2023/06/04 00:10:05;;;;;;;2.58;2.20;;;11.40;99.90;;;;;;4934787;29;20230;-81
2023/06/04 00:12:32;;;;;;;4.72;2.95;;;11.40;99.90;;;;;;4932449;29;20488;-84
2023/06/04 00:15:00;;;;;;;5.05;3.20;;;11.40;99.90;;;;;;4956913;28;20212;-83
2023/06/04 00:17:27;;;;;;;7.20;5.00;;;11.30;99.90;;;;;;4943390;29;20566;-85
2023/06/04 00:19:54;;;;;;;3.08;2.35;;;11.30;99.90;;;;;;4938161;29;20211;-82
2023/06/04 00:22:23;;;;;;;3.67;2.30;;;11.20;99.90;;;;;;4936102;29;20287;-84
2023/06/04 00:24:51;;;;;;;2.60;2.22;;;11.20;99.90;;;;;;4944220;29;20434;-85
2023/06/04 00:27:18;;;;;;;3.50;2.40;;;11.10;99.90;;;;;;4935543;29;20218;-80
2023/06/04 00:29:50;;;;;;;6.38;3.17;;;11.00;99.90;;;;;;4941377;29;20321;-80
2023/06/04 00:32:17;;;;;;;4.10;2.95;;;11.10;99.90;;;;;;4949572;28;20227;-84
2023/06/04 00:34:51;;;;;;;3.40;3.10;;;10.80;99.90;;;;;;4947315;28;20272;-82
2023/06/04 00:37:18;;;;;;;6.00;3.50;;;10.90;99.90;;;;;;4947093;28;20192;-79
2023/06/04 00:39:45;;;;;;;3.55;2.95;;;10.90;99.90;;;;;;4958845;29;20204;-81
2023/06/04 00:42:13;;;;;;;3.85;2.40;;;10.70;99.90;;;;;;4942594;29;20218;-81
2023/06/04 00:44:44;;;;;;;3.75;2.75;;;10.90;99.90;;;;;;4955455;29;20325;-85
2023/06/04 00:47:19;;;;;;;6.40;3.33;;;10.90;99.90;;;;;;4941632;29;20224;-81
2023/06/04 00:49:47;;;;;;;6.47;2.95;;;10.70;99.90;;;;;;4940365;29;20212;-83
2023/06/04 00:52:16;;;;;;;3.95;2.45;;;10.80;99.90;;;;;;4927066;29;20232;-83
2023/06/04 00:54:43;;;;;;;3.53;2.55;;;10.80;99.90;;;;;;4940676;29;20247;-81
2023/06/04 00:57:14;;;;;;;2.70;2.20;;;10.70;99.90;;;;;;4935325;29;20212;-79
2023/06/04 00:59:41;;;;;;;4.35;3.17;;;10.60;99.90;;;;;;4936456;29;20219;-80
2023/06/04 01:02:15;;;;;;;3.30;2.45;;;10.70;99.90;;;;;;4945100;29;20216;-82
2023/06/04 01:05:02;;;;;;;5.35;2.50;;;10.70;99.90;;;;;;4935593;29;20367;-81
2023/06/04 01:07:33;;;;;;;4.30;2.80;;;10.60;99.90;;;;;;4954146;29;20407;-84
2023/06/04 01:10:01;;;;;;;3.50;2.70;;;10.60;99.90;;;;;;4938562;29;20214;-82
2023/06/04 01:12:40;;;;;;;8.02;2.85;;;10.40;99.90;;;;;;4948433;29;20223;-84
2023/06/04 01:15:07;;;;;;;3.70;2.50;;;10.40;99.90;;;;;;4936034;29;20212;-83
2023/06/04 01:17:42;;;;;;;5.10;3.20;;;10.40;99.90;;;;;;4940013;29;20238;-83
2023/06/04 01:20:27;;;;;;;4.15;2.78;;;10.30;99.90;;;;;;4934947;29;20227;-84
2023/06/04 01:22:59;;;;;;;3.40;3.10;;;10.40;99.90;;;;;;4939980;29;20222;-82
2023/06/04 01:25:41;;;;;;;3.83;2.75;;;10.30;99.90;;;;;;4935676;29;20263;-80
2023/06/04 01:28:13;;;;;;;5.70;2.63;;;10.20;99.90;;;;;;4923121;29;20212;-80
2023/06/04 01:30:45;;;;;;;3.05;2.55;;;10.20;99.90;;;;;;4941527;29;20208;-85
2023/06/04 01:33:17;;;;;;;5.47;3.58;;;10.10;99.90;;;;;;4939029;29;20231;-87
2023/06/04 01:35:44;;;;;;;3.53;2.47;;;10.00;99.90;;;;;;4950791;29;20251;-83
2023/06/04 01:38:11;;;;;;;3.20;2.95;;;10.00;99.90;;;;;;4948569;29;20307;-83
2023/06/04 01:40:40;;;;;;;4.13;2.92;;;10.00;99.90;;;;;;4939945;29;20215;-82
2023/06/04 01:43:08;;;;;;;7.05;2.92;;;10.10;99.90;;;;;;4938676;29;20670;-83
2023/06/04 01:45:35;;;;;;;6.00;3.72;;;10.00;99.90;;;;;;4935937;29;20231;-79
2023/06/04 01:48:04;;;;;;;6.15;3.20;;;9.90;99.90;;;;;;4940022;29;20203;-86
2023/06/04 01:50:31;;;;;;;4.38;3.50;;;9.90;99.90;;;;;;4940947;29;20271;-80
2023/06/04 01:52:59;;;;;;;7.45;2.90;;;9.90;99.90;;;;;;4937317;29;20234;-80
2023/06/04 01:55:28;;;;;;;4.97;3.90;;;9.80;99.90;;;;;;4936005;29;20210;-81
2023/06/04 01:57:57;;;;;;;2.92;2.67;;;9.80;99.90;;;;;;4938963;29;20204;-82
2023/06/04 02:00:24;;;;;;;4.30;2.70;;;9.80;99.90;;;;;;4938772;29;20227;-81
2023/06/04 02:02:55;;;;;;;3.63;2.55;;;9.60;99.90;;;;;;4939881;29;20210;-78
2023/06/04 02:05:23;;;;;;;3.67;3.10;;;9.60;99.90;;;;;;4937984;29;20275;-79
2023/06/04 02:07:52;;;;;;;4.10;3.15;;;9.60;99.90;;;;;;4934898;29;20397;-83
2023/06/04 02:10:19;;;;;;;5.78;3.35;;;9.50;99.90;;;;;;4934027;29;20211;-83
2023/06/04 02:13:02;;;;;;;3.65;2.67;;;9.60;99.90;;;;;;4933249;29;20319;-81
2023/06/04 02:15:30;;;;;;;3.63;3.10;;;9.50;99.90;;;;;;4932141;29;20204;-83
2023/06/04 02:18:12;;;;;;;6.07;3.15;;;9.50;99.90;;;;;;4938789;29;20200;-82
2023/06/04 02:20:39;;;;;;;9.25;5.05;;;9.40;99.90;;;;;;4955976;29;20267;-81
2023/06/04 02:23:06;;;;;;;6.82;4.07;;;9.50;99.90;;;;;;4938303;29;20222;-83
2023/06/04 02:25:34;;;;;;;5.05;2.97;;;9.40;99.90;;;;;;4944258;29;20268;-84
2023/06/04 02:28:00;;;;;;;5.53;2.92;;;9.30;99.90;;;;;;4951461;28;20200;-84
2023/06/04 02:30:30;;;;;;;3.78;2.50;;;9.30;99.90;;;;;;4957823;28;20195;-85
2023/06/04 02:33:00;;;;;;;6.63;2.92;;;9.20;99.90;;;;;;4950610;28;20208;-81
2023/06/04 02:35:31;;;;;;;5.25;3.88;;;9.20;99.90;;;;;;4945515;29;20440;-81
2023/06/04 02:37:58;;;;;;;5.25;3.22;;;9.40;99.90;;;;;;4933980;29;20299;-80
2023/06/04 02:40:26;;;;;;;3.40;2.60;;;9.40;99.90;;;;;;4933903;29;20450;-83
2023/06/04 02:42:54;;;;;;;4.68;3.75;;;9.30;99.90;;;;;;4938798;29;20211;-84
2023/06/04 02:45:25;;;;;;;4.38;3.17;;;9.30;99.90;;;;;;4941658;29;20203;-86
2023/06/04 02:47:56;;;;;;;4.97;3.15;;;9.30;99.90;;;;;;4936516;29;20226;-82
2023/06/04 02:50:25;;;;;;;4.70;3.10;;;9.40;99.90;;;;;;4943026;29;20376;-84
2023/06/04 02:52:54;;;;;;;7.40;3.33;;;9.20;99.90;;;;;;4925124;29;20224;-80
2023/06/04 02:55:21;;;;;;;3.13;2.83;;;9.40;99.90;;;;;;4936316;29;20212;-85
2023/06/04 02:57:48;;;;;;;3.35;2.80;;;9.30;99.90;;;;;;4938502;29;20212;-84
2023/06/04 03:00:17;;;;;;;3.60;2.67;;;9.30;99.90;;;;;;4934445;29;20751;-84
2023/06/04 03:02:46;;;;;;;2.63;2.13;;;9.50;99.90;;;;;;4940436;29;20549;-82
2023/06/04 03:05:15;;;;;;;6.68;3.58;;;9.40;99.90;;;;;;4941699;29;20516;-83
2023/06/04 03:07:46;;;;;;;5.13;2.58;;;9.40;99.90;;;;;;4931525;29;20230;-81
2023/06/04 03:10:16;;;;;;;2.80;2.60;;;9.50;99.90;;;;;;4938676;29;20207;-83
2023/06/04 03:12:44;;;;;;;5.28;3.50;;;9.80;99.90;;;;;;4927157;29;20224;-84
2023/06/04 03:15:13;;;;;;;4.90;3.42;;;9.40;99.90;;;;;;4943141;29;20216;-79
2023/06/04 03:17:41;;;;;;;4.47;3.10;;;9.40;99.90;;;;;;4943438;29;20220;-81
2023/06/04 03:20:10;;;;;;;8.85;4.45;;;9.30;99.90;;;;;;4943204;29;20218;-81
2023/06/04 03:22:37;;;;;;;4.82;2.80;;;9.40;99.90;;;;;;4936612;29;20204;-86
2023/06/04 03:25:05;;;;;;;9.73;2.55;;;9.40;99.90;;;;;;4933235;29;20425;-85
2023/06/04 03:27:35;;;;;;;4.32;3.08;;;9.80;99.90;;;;;;4924066;29;20216;-84
2023/06/04 03:30:03;;;;;;;5.22;3.05;;;10.50;99.90;;;;;;4931908;29;20208;-84
2023/06/04 03:32:31;;;;;;;4.90;3.50;;;11.20;99.90;;;;;;4940542;29;20755;-84
2023/06/04 03:35:01;;;;;;;4.45;2.40;;;11.60;99.90;;;;;;4935171;29;20258;-85
2023/06/04 03:37:28;;;;;;;3.95;3.00;;;12.00;99.90;;;;;;4934574;29;20222;-84
2023/06/04 03:39:55;;;;;;;4.57;2.80;;;12.00;99.90;;;;;;4936150;29;20215;-81
2023/06/04 03:42:22;;;;;;;7.65;3.63;;;12.00;99.90;;;;;;4934762;29;20216;-82
2023/06/04 03:44:49;;;;;;;5.28;2.15;;;11.90;99.90;;;;;;4938073;29;20215;-81
2023/06/04 03:47:17;;;;;;;5.13;3.33;;;11.70;99.90;;;;;;4925265;29;20531;-85
2023/06/04 03:49:47;;;;;;;3.05;2.17;;;11.80;99.90;;;;;;4943252;29;20207;-82
2023/06/04 03:52:14;;;;;;;2.92;2.53;;;11.80;99.90;;;;;;4957371;28;20212;-84
2023/06/04 03:54:41;;;;;;;5.50;4.95;;;11.80;99.90;;;;;;4936848;29;20239;-84
2023/06/04 03:57:08;;;;;;;4.53;2.33;;;11.90;99.90;;;;;;4941619;29;20303;-83
2023/06/04 04:00:03;;;;;;;3.00;2.58;;;12.10;99.90;;;;;;4943594;29;20223;-81
2023/06/04 04:02:56;;;;;;;3.35;2.92;;;12.30;99.90;;;;;;4938636;29;20266;-86
2023/06/04 04:05:26;;;;;;;4.47;3.60;;;12.10;99.90;;;;;;4955251;29;20285;-82
2023/06/04 04:07:53;;;;;;;3.65;2.72;;;12.10;99.90;;;;;;4952055;29;20212;-82
2023/06/04 04:10:21;;;;;;;6.00;2.50;;;12.10;99.90;;;;;;4935251;29;20411;-86
2023/06/04 04:12:54;;;;;;;4.65;2.42;;;12.30;99.90;;;;;;4925935;29;20457;-81
2023/06/04 04:15:24;;;;;;;4.72;2.53;;;12.60;99.90;;;;;;4941001;29;20460;-80
2023/06/04 04:18:16;;;;;;;3.30;2.28;;;12.60;99.90;;;;;;4929354;29;20829;-83
2023/06/04 04:20:49;;;;;;;4.35;3.55;;;12.40;99.90;;;;;;4937051;29;20216;-88
2023/06/04 04:23:25;;;;;;;4.38;2.75;;;12.20;99.90;;;;;;4939651;29;20214;-80
2023/06/04 04:25:56;;;;;;;5.13;3.22;;;12.10;99.90;;;;;;4935997;29;20208;-83
2023/06/04 04:28:28;;;;;;;5.28;2.47;;;12.00;99.90;;;;;;4935385;29;20503;-81
2023/06/04 04:31:02;;;;;;;3.22;2.35;;;12.00;99.90;;;;;;4932496;29;20211;-81
2023/06/04 04:33:36;;;;;;;4.40;2.22;;;12.10;99.90;;;;;;4931286;29;20228;-82
2023/06/04 04:36:08;;;;;;;4.80;3.08;;;12.00;99.90;;;;;;4933409;29;20242;-82
2023/06/04 04:38:37;;;;;;;5.80;2.78;;;12.20;99.90;;;;;;4934138;29;20208;-81
2023/06/04 04:41:04;;;;;;;3.42;2.53;;;12.50;99.90;;;;;;4935812;29;20231;-80
2023/06/04 04:43:34;;;;;;;4.15;2.50;;;12.50;99.90;;;;;;4927580;29;20216;-83
2023/06/04 04:46:03;;;;;;;3.42;2.25;;;12.40;99.90;;;;;;4927921;29;20216;-81
2023/06/04 04:48:30;;;;;;;4.95;2.83;;;12.30;99.90;;;;;;4933687;29;20417;-82
2023/06/04 04:50:57;;;;;;;9.77;3.40;;;12.30;99.90;;;;;;4928057;29;20240;-82
2023/06/04 04:53:27;;;;;;;5.65;2.63;;;12.50;99.90;;;;;;4941810;29;20439;-84
2023/06/04 04:55:54;;;;;;;5.07;2.58;;;12.60;99.90;;;;;;4927490;29;20275;-81
2023/06/04 04:58:24;;;;;;;3.40;2.45;;;12.70;99.90;;;;;;4935057;29;20216;-82
2023/06/04 05:00:51;;;;;;;2.33;2.13;;;12.90;99.90;;;;;;4940641;29;20523;-82
2023/06/04 05:03:18;;;;;;;7.43;3.72;;;13.00;99.90;;;;;;4927146;29;20216;-86
2023/06/04 05:05:48;;;;;;;3.78;3.35;;;13.00;99.90;;;;;;4940219;29;20227;-83
2023/06/04 05:08:15;;;;;;;4.10;3.05;;;13.10;99.90;;;;;;4940610;29;20279;-84
2023/06/04 05:10:45;;;;;;;2.80;2.60;;;13.30;99.90;;;;;;4936900;29;20209;-81
2023/06/04 05:13:15;;;;;;;4.97;3.00;;;13.40;99.90;;;;;;4937433;29;20231;-81
2023/06/04 05:15:42;;;;;;;5.25;2.80;;;13.60;99.90;;;;;;4931578;29;20208;-82
2023/06/04 05:18:09;;;;;;;7.60;2.80;;;13.70;99.90;;;;;;4940975;29;20734;-80
2023/06/04 05:20:37;;;;;;;4.10;3.33;;;13.90;99.90;;;;;;4931275;29;20212;-81
2023/06/04 05:23:05;;;;;;;4.00;2.87;;;13.80;99.90;;;;;;4940795;29;20541;-80
2023/06/04 05:25:32;;;;;;;5.32;3.08;;;13.80;99.90;;;;;;4933613;29;20457;-79
2023/06/04 05:27:59;;;;;;;4.90;2.15;;;13.90;99.90;;;;;;4935602;29;20200;-83
2023/06/04 05:30:27;;;;;;;6.40;3.20;;;13.90;99.90;;;;;;4933966;29;20216;-81
2023/06/04 05:32:54;;;;;;;4.97;2.90;;;13.90;99.90;;;;;;4929491;29;20654;-80
2023/06/04 05:35:21;;;;;;;4.55;2.78;;;14.10;99.90;;;;;;4938739;29;20204;-82
2023/06/04 05:37:53;;;;;;;5.15;3.05;;;14.40;99.90;;;;;;4933886;29;20261;-79
2023/06/04 05:40:22;;;;;;;3.20;2.23;;;14.40;99.90;;;;;;4940133;29;20515;-79
2023/06/04 05:42:49;;;;;;;3.03;2.43;;;14.50;99.90;;;;;;4933573;29;20553;-81
2023/06/04 05:45:18;;;;;;;2.33;2.13;;;14.60;99.90;;;;;;4936542;29;20475;-80
2023/06/04 05:47:46;;;;;;;2.63;2.00;;;14.60;99.90;;;;;;4928985;29;20443;-80
2023/06/04 05:50:13;;;;;;;2.30;2.10;;;14.90;99.90;;;;;;4939076;29;20702;-80
2023/06/04 05:52:40;;;;;;;2.67;2.37;;;15.10;99.90;;;;;;4925273;29;20519;-80
2023/06/04 05:55:07;;;;;;;2.37;2.17;;;15.00;99.90;;;;;;4937653;29;20494;-79
2023/06/04 05:57:35;;;;;;;6.93;3.13;;;14.90;99.90;;;;;;4940445;29;20520;-80
2023/06/04 06:00:08;;;;;;;2.10;1.90;;;15.10;99.90;;;;;;4939765;29;20655;-81
2023/06/04 06:02:38;;;;;;;7.27;2.30;;;15.00;99.90;;;;;;4946041;29;20490;-81
2023/06/04 06:05:09;;;;;;;2.67;2.40;;;15.00;99.90;;;;;;4933490;29;20892;-80
2023/06/04 06:07:37;;;;;;;2.90;2.10;;;15.20;99.90;;;;;;4935717;29;20440;-81
2023/06/04 06:10:04;;;;;;;3.60;2.33;;;15.50;99.90;;;;;;4934865;29;20478;-79
2023/06/04 06:12:31;;;;;;;2.80;2.13;;;15.80;99.90;;;;;;4948461;29;20430;-79
2023/06/04 06:15:00;;;;;;;3.37;2.30;;;16.00;99.90;;;;;;4945155;29;20496;-79
2023/06/04 06:17:28;;;;;;;11.23;2.87;;;16.00;99.90;;;;;;4948363;29;20471;-81
2023/06/04 06:19:56;;;;;;;2.10;1.77;;;16.20;99.90;;;;;;4946288;29;20459;-81
2023/06/04 06:22:23;;;;;;;3.00;2.03;;;16.40;99.90;;;;;;4934127;29;20542;-80
2023/06/04 06:24:49;;;;;;;4.60;2.10;;;16.70;99.90;;;;;;4941241;29;20642;-78
2023/06/04 06:27:17;;;;;;;4.20;3.80;;;16.80;99.90;;;;;;4941116;29;20454;-80
2023/06/04 06:29:44;;;;;;;4.70;2.03;;;17.10;99.90;;;;;;4941779;29;20828;-82
2023/06/04 06:32:12;;;;;;;4.70;2.37;;;17.20;99.90;;;;;;4941541;29;20427;-81
2023/06/04 06:34:40;;;;;;;5.70;2.33;;;17.00;99.90;;;;;;4934968;29;20513;-79
2023/06/04 06:37:09;;;;;;;5.40;1.87;;;16.60;99.90;;;;;;4941638;29;20445;-80
2023/06/04 06:39:37;;;;;;;2.80;2.57;;;16.60;99.90;;;;;;4942095;29;20446;-80
2023/06/04 06:42:04;;;;;;;3.03;2.50;;;17.10;99.90;;;;;;4942141;29;20802;-79
2023/06/04 06:44:31;;;;;;;4.43;2.57;;;17.40;99.90;;;;;;4934064;29;20465;-78
2023/06/04 06:46:58;;;;;;;3.57;2.13;;;17.80;99.90;;;;;;4934536;29;20479;-80
2023/06/04 06:49:25;;;;;;;4.03;3.00;;;18.00;99.90;;;;;;4940784;29;20501;-80
2023/06/04 06:51:52;;;;;;;3.20;2.40;;;18.60;99.90;;;;;;4936661;29;20423;-81
2023/06/04 06:54:22;;;;;;;3.07;2.30;;;19.20;99.90;;;;;;4938144;29;20485;-81
2023/06/04 06:56:50;;;;;;;3.60;3.10;;;19.60;99.90;;;;;;4936147;29;20600;-81
2023/06/04 06:59:17;;;;;;;8.50;2.40;;;20.90;99.90;;;;;;4943035;28;20497;-78
2023/06/04 07:01:45;;;;;;;4.30;2.50;;;22.60;98.50;;;;;;4933159;29;20416;-80
2023/06/04 07:04:13;;;;;;;5.80;2.93;;;23.60;95.30;;;;;;4939792;29;20465;-82
2023/06/04 07:06:40;;;;;;;2.90;2.20;;;24.70;88.50;;;;;;4929393;29;20443;-79
2023/06/04 07:09:07;;;;;;;5.50;3.10;;;24.00;87.20;;;;;;4933553;29;20440;-78
2023/06/04 07:11:34;;;;;;;7.70;2.80;;;24.50;85.10;;;;;;4926387;29;20418;-81
2023/06/04 07:14:04;;;;;;;3.20;2.60;;;26.10;76.00;;;;;;4945346;29;20490;-80
2023/06/04 07:16:32;;;;;;;5.50;2.80;;;27.10;68.10;;;;;;4941830;29;20505;-79
2023/06/04 07:19:04;;;;;;;3.57;2.53;;;27.30;63.10;;;;;;4941820;29;20761;-80
2023/06/04 07:21:47;;;;;;;6.27;5.00;;;28.70;58.00;;;;;;4933778;29;20464;-79
2023/06/04 07:24:36;;;;;;;3.07;2.77;;;29.80;56.00;;;;;;4934730;29;20448;-79
2023/06/04 07:27:19;;;;;;;6.80;2.67;;;31.20;52.10;;;;;;4937889;29;20670;-79
2023/06/04 07:29:46;;;;;;;3.00;2.70;;;30.50;49.70;;;;;;4944092;29;20462;-79
2023/06/04 07:32:15;;;;;;;2.90;2.50;;;32.00;47.80;;;;;;4942427;29;20481;-80
2023/06/04 07:34:44;;;;;;;2.73;2.00;;;32.70;44.60;;;;;;4929545;29;20486;-81
2023/06/04 07:37:15;;;;;;;4.50;3.37;;;34.00;43.60;;;;;;4939215;29;20449;-80
2023/06/04 07:39:42;;;;;;;4.10;2.90;;;34.00;42.70;;;;;;4942167;29;20515;-78
2023/06/04 07:42:12;;;;;;;3.20;2.90;;;33.20;42.70;;;;;;4940349;29;20477;-78
2023/06/04 07:44:41;;;;;;;7.07;3.63;;;32.50;43.40;;;;;;4939734;29;20466;-78
2023/06/04 07:47:11;;;;;;;2.67;2.43;;;33.60;41.40;;;;;;4939592;29;20518;-77
2023/06/04 07:49:38;;;;;;;10.10;3.27;;;33.10;42.80;;;;;;4938549;29;20451;-80
2023/06/04 07:52:22;;;;;;;3.60;2.33;;;33.40;41.90;;;;;;4949843;29;20513;-81
2023/06/04 07:54:48;;;;;;;2.50;2.00;;;33.50;41.00;;;;;;4941284;29;20658;-81
2023/06/04 07:57:16;;;;;;;5.00;2.80;;;32.70;40.60;;;;;;4936762;29;20687;-79
2023/06/04 07:59:43;;;;;;;2.37;1.90;;;31.70;42.70;;;;;;4941282;29;20688;-82
2023/06/04 08:02:10;;;;;;;3.13;2.70;;;31.40;41.90;;;;;;4943817;29;20458;-78
2023/06/04 08:04:37;;;;;;;4.27;3.00;;;31.70;42.70;;;;;;4945337;29;20478;-79
2023/06/04 08:07:04;;;;;;;2.70;2.20;;;33.30;41.50;;;;;;4938910;29;20467;-78
2023/06/04 08:09:31;;;;;;;3.23;2.57;;;32.70;40.30;;;;;;4948739;29;20438;-79
2023/06/04 08:11:59;;;;;;;4.33;2.00;;;31.50;41.50;;;;;;4941462;29;20443;-82
2023/06/04 08:14:27;;;;;;;2.37;2.17;;;30.80;42.50;;;;;;4948620;29;20777;-79
2023/06/04 08:16:54;;;;;;;4.93;2.57;;;31.20;42.80;;;;;;4934782;29;20740;-79
2023/06/04 08:19:23;;;;;;;4.07;2.33;;;32.70;40.90;;;;;;4952287;28;20457;-82
2023/06/04 08:21:50;;;;;;;2.27;1.93;;;33.60;39.00;;;;;;4942270;29;20642;-83
2023/06/04 08:24:18;;;;;;;2.17;2.03;;;31.00;41.40;;;;;;4941446;29;20489;-80
2023/06/04 08:26:47;;;;;;;2.83;2.23;;;30.50;42.50;;;;;;4931959;29;20453;-81
2023/06/04 08:29:16;;;;;;;2.10;1.90;;;30.50;42.50;;;;;;4936269;29;20505;-80
2023/06/04 08:31:44;;;;;;;2.37;2.10;;;29.30;43.10;;;;;;4933947;29;20451;-78
2023/06/04 08:34:12;;;;;;;2.50;1.80;;;29.40;42.70;;;;;;4941401;29;20458;-80
2023/06/04 08:36:40;;;;;;;2.63;1.90;;;29.60;41.20;;;;;;4932377;29;20454;-79
2023/06/04 08:39:09;;;;;;;2.93;2.40;;;30.30;42.10;;;;;;4940258;29;20447;-79
2023/06/04 08:42:03;;;;;;;2.03;1.83;;;30.00;40.80;;;;;;4929666;29;20512;-83
2023/06/04 08:44:30;;;;;;;4.90;1.70;;;29.30;40.60;;;;;;4926511;29;20488;-77
2023/06/04 08:47:12;;;;;;;2.60;1.60;;;28.00;41.40;;;;;;4931698;29;20466;-79
2023/06/04 08:49:45;;;;;;;1.87;1.70;;;27.40;42.90;;;;;;4935279;29;20513;-80
2023/06/04 08:52:17;;;;;;;1.93;1.80;;;30.10;41.60;;;;;;4933449;29;20435;-81
2023/06/04 08:54:44;;;;;;;3.27;2.10;;;32.10;39.30;;;;;;4941322;29;20453;-82
2023/06/04 08:57:11;;;;;;;1.70;1.60;;;33.70;37.20;;;;;;4933935;29;20488;-79
2023/06/04 08:59:38;;;;;;;1.90;1.57;;;33.60;36.90;;;;;;4932639;29;20544;-79
2023/06/04 09:02:06;;;;;;;1.60;1.50;;;31.70;38.40;;;;;;4949439;29;20445;-78
2023/06/04 09:04:33;;;;;;;2.60;2.40;;;28.70;39.60;;;;;;4935496;29;20826;-80
2023/06/04 09:07:02;;;;;;;3.20;2.27;;;28.50;41.30;;;;;;4932858;29;20510;-83
2023/06/04 09:09:30;;;;;;;2.40;2.20;;;27.80;43.50;;;;;;4927140;29;20439;-79
2023/06/04 09:11:58;;;;;;;2.10;2.00;;;27.40;42.90;;;;;;4934194;29;20482;-79
2023/06/04 09:14:26;;;;;;;2.73;2.03;;;27.60;42.60;;;;;;4947859;29;20768;-79
2023/06/04 09:16:58;;;;;;;2.50;1.93;;;28.50;42.40;;;;;;4952407;29;20453;-81
2023/06/04 09:19:28;;;;;;;1.60;1.50;;;28.90;41.80;;;;;;4939014;29;20442;-80
2023/06/04 09:22:02;;;;;;;2.37;2.17;;;29.70;41.00;;;;;;4933336;29;20496;-78
2023/06/04 09:24:46;;;;;;;1.83;1.73;;;29.70;40.60;;;;;;4932882;29;20482;-83
2023/06/04 09:27:18;;;;;;;2.10;2.00;;;30.10;40.30;;;;;;4937607;29;20450;-80
2023/06/04 09:29:51;;;;;;;3.73;1.87;;;28.50;42.60;;;;;;4936479;29;20642;-80
2023/06/04 09:32:29;;;;;;;4.33;2.33;;;28.40;42.80;;;;;;4932359;29;20680;-80
2023/06/04 09:35:08;;;;;;;1.80;1.70;;;27.90;42.90;;;;;;4932212;29;20461;-79
2023/06/04 09:37:42;;;;;;;2.13;1.93;;;26.20;44.60;;;;;;4937395;29;20427;-82
2023/06/04 09:40:11;;;;;;;3.73;2.33;;;24.70;47.40;;;;;;4940284;29;20450;-81
2023/06/04 09:42:46;;;;;;;2.80;2.10;;;24.00;49.10;;;;;;4937297;29;20428;-81
2023/06/04 09:45:31;;;;;;;2.40;2.20;;;23.30;51.10;;;;;;4938761;29;20611;-83
2023/06/04 09:48:05;;;;;;;2.83;1.70;;;23.30;52.10;;;;;;4940627;29;20528;-79
2023/06/04 09:50:38;;;;;;;1.70;1.43;;;22.80;52.20;;;;;;4932264;29;20427;-81
2023/06/04 09:53:23;;;;;;;2.90;1.80;;;22.60;52.80;;;;;;4942843;29;20466;-83
2023/06/04 09:56:01;;;;;;;1.90;1.77;;;22.50;53.10;;;;;;4951499;29;20442;-83
2023/06/04 09:58:29;;;;;;;4.00;1.87;;;22.40;54.50;;;;;;4941010;29;20441;-83
2023/06/04 10:00:58;;;;;;;2.83;1.43;;;22.70;53.90;;;;;;4941915;29;20417;-82
2023/06/04 10:03:27;;;;;;;3.03;1.90;;;22.80;53.90;;;;;;4952256;29;20425;-81
2023/06/04 10:05:57;;;;;;;2.97;1.80;;;22.80;54.10;;;;;;4935890;29;20480;-82
2023/06/04 10:08:26;;;;;;;2.90;2.03;;;23.00;54.10;;;;;;4942793;29;20425;-82
2023/06/04 10:10:57;;;;;;;2.20;1.60;;;22.60;53.00;;;;;;4943828;29;20888;-82
2023/06/04 10:13:28;;;;;;;2.40;1.60;;;22.30;53.40;;;;;;4931509;29;20428;-85
2023/06/04 10:16:00;;;;;;;2.37;1.87;;;22.40;54.30;;;;;;4936009;29;20475;-80
2023/06/04 10:18:28;;;;;;;4.03;2.13;;;22.50;55.00;;;;;;4942255;29;20429;-83
2023/06/04 10:20:56;;;;;;;2.30;2.10;;;22.80;53.70;;;;;;4946088;29;20722;-81
2023/06/04 10:23:24;;;;;;;2.80;2.00;;;22.80;55.00;;;;;;4935006;29;20413;-81
2023/06/04 10:25:53;;;;;;;2.10;1.90;;;23.10;55.20;;;;;;4934451;29;20462;-82
2023/06/04 10:28:21;;;;;;;1.60;1.50;;;23.20;54.10;;;;;;4936123;29;20930;-83
2023/06/04 10:30:50;;;;;;;2.03;1.83;;;23.60;53.40;;;;;;4930635;29;20451;-81
2023/06/04 10:33:24;;;;;;;3.63;1.80;;;23.40;52.60;;;;;;4930317;29;20454;-82
2023/06/04 10:35:55;;;;;;;2.33;2.03;;;23.50;52.50;;;;;;4934978;29;20486;-80
2023/06/04 10:38:22;;;;;;;1.97;1.60;;;23.40;52.60;;;;;;4940851;29;20651;-82
2023/06/04 10:40:49;;;;;;;2.27;1.47;;;23.30;51.30;;;;;;4928896;29;20463;-83
2023/06/04 10:43:16;;;;;;;1.40;1.30;;;23.20;51.70;;;;;;4941409;29;20606;-81
2023/06/04 10:45:45;;;;;;;2.77;1.93;;;23.00;52.70;;;;;;4933227;29;20497;-82
2023/06/04 10:48:14;;;;;;;1.50;1.40;;;22.70;53.10;;;;;;4937167;29;20513;-82
2023/06/04 10:50:53;;;;;;;3.83;2.47;;;22.50;52.20;;;;;;4937325;29;20454;-87
2023/06/04 10:53:21;;;;;;;3.13;1.83;;;21.80;50.90;;;;;;4942489;29;20542;-85
2023/06/04 10:55:49;;;;;;;2.60;1.70;;;21.70;53.30;;;;;;4944766;29;20428;-84
2023/06/04 10:58:18;;;;;;;3.00;1.70;;;21.90;54.20;;;;;;4933239;29;20481;-82
2023/06/04 11:00:49;;;;;;;2.13;1.97;;;22.10;52.10;;;;;;4936531;29;20490;-82
2023/06/04 11:03:17;;;;;;;1.80;1.60;;;22.40;52.00;;;;;;4934616;29;20448;-80
2023/06/04 11:05:47;;;;;;;1.70;1.50;;;22.40;52.10;;;;;;4940861;29;20456;-82
2023/06/04 11:08:25;;;;;;;2.73;2.17;;;21.90;52.50;;;;;;4936486;29;20441;-80
2023/06/04 11:10:54;;;;;;;2.40;1.50;;;22.10;53.20;;;;;;4936601;29;20765;-87
2023/06/04 11:13:26;;;;;;;3.83;2.23;;;22.10;53.60;;;;;;4939959;29;20508;-86
2023/06/04 11:15:53;;;;;;;1.90;1.30;;;22.10;54.40;;;;;;4947514;29;20459;-85
2023/06/04 11:18:22;;;;;;;2.17;2.00;;;22.00;54.30;;;;;;4945873;29;20623;-86
2023/06/04 11:20:58;;;;;;;2.57;2.20;;;22.10;54.40;;;;;;4942541;29;20444;-82
2023/06/04 11:23:26;;;;;;;1.90;1.80;;;22.10;53.50;;;;;;4939640;29;20416;-84
2023/06/04 11:25:54;;;;;;;2.80;1.80;;;22.10;54.70;;;;;;4945387;29;20465;-81
2023/06/04 11:28:21;;;;;;;1.73;1.60;;;22.10;55.10;;;;;;4934564;28;20493;-83
2023/06/04 11:31:02;;;;;;;1.83;1.60;;;22.00;55.20;;;;;;4938940;29;20522;-80
2023/06/04 11:33:30;;;;;;;2.00;1.80;;;22.00;55.40;;;;;;4941602;29;20781;-82
2023/06/04 11:35:57;;;;;;;1.77;1.67;;;21.80;55.60;;;;;;4941121;29;20429;-83
2023/06/04 11:38:24;;;;;;;2.67;2.27;;;21.80;55.10;;;;;;4940109;29;20435;-81
2023/06/04 11:40:59;;;;;;;1.83;1.73;;;21.80;56.10;;;;;;4923938;29;20439;-83
2023/06/04 11:43:27;;;;;;;2.43;1.77;;;21.90;55.90;;;;;;4938565;29;20467;-81
2023/06/04 11:45:57;;;;;;;2.00;1.77;;;21.90;55.80;;;;;;4957158;28;20483;-84
2023/06/04 11:48:24;;;;;;;3.83;2.57;;;22.00;55.40;;;;;;4945008;29;20786;-83
2023/06/04 11:50:53;;;;;;;1.90;1.60;;;22.20;55.00;;;;;;4936547;29;20510;-84
2023/06/04 11:53:20;;;;;;;2.00;1.80;;;22.20;54.00;;;;;;4946019;29;20454;-81
2023/06/04 11:55:48;;;;;;;3.17;1.60;;;22.10;54.00;;;;;;4945073;29;20440;-82
2023/06/04 11:58:15;;;;;;;1.70;1.60;;;21.80;53.80;;;;;;4952986;29;20465;-82
2023/06/04 12:00:42;;;;;;;3.27;2.37;;;21.90;53.50;;;;;;4945976;29;20476;-82
2023/06/04 12:03:09;;;;;;;2.20;1.57;;;22.00;53.90;;;;;;4948768;29;20449;-83
2023/06/04 12:05:36;;;;;;;3.33;2.10;;;22.00;54.10;;;;;;4946323;29;20527;-83
2023/06/04 12:08:13;;;;;;;2.37;2.07;;;22.30;54.40;;;;;;4940517;29;20685;-82
2023/06/04 12:10:42;;;;;;;2.13;1.50;;;22.50;52.70;;;;;;4932153;29;20453;-82
2023/06/04 12:13:09;;;;;;;2.63;1.90;;;22.80;52.00;;;;;;4942374;28;20424;-82
2023/06/04 12:15:37;;;;;;;2.60;1.63;;;23.00;52.70;;;;;;4950974;29;20457;-82
2023/06/04 12:18:04;;;;;;;1.87;1.53;;;22.90;52.20;;;;;;4942696;29;20788;-81
2023/06/04 12:20:36;;;;;;;2.43;1.80;;;23.10;52.90;;;;;;4942424;29;20466;-83
2023/06/04 12:23:04;;;;;;;2.33;1.63;;;23.20;52.20;;;;;;4940815;29;20427;-82
2023/06/04 12:25:33;;;;;;;2.77;2.53;;;22.60;52.50;;;;;;4942663;29;20448;-84
2023/06/04 12:28:00;;;;;;;1.73;1.63;;;22.30;52.50;;;;;;4942741;29;20885;-82
2023/06/04 12:34:14;;;;;;;2.80;2.03;;;22.40;53.80;;;;;;5146349;23;20474;-83
2023/06/04 12:36:44;;;;;;;2.80;1.27;;;22.80;52.40;;;;;;4963869;28;20446;-80
2023/06/04 12:39:11;;;;;;;2.20;2.00;;;23.00;52.50;;;;;;4968933;28;20422;-80
2023/06/04 12:41:45;;;;;;;1.73;1.60;;;23.00;53.10;;;;;;4952452;29;20515;-87
2023/06/04 12:44:12;;;;;;;3.53;1.90;;;22.60;52.10;;;;;;4958521;28;20500;-85
2023/06/04 12:46:39;;;;;;;2.90;2.60;;;22.40;52.40;;;;;;4971602;28;20533;-83
2023/06/04 12:49:12;;;;;;;1.20;1.10;;;22.30;53.90;;;;;;4960440;28;20416;-84
2023/06/04 12:52:10;;;;;;;4.10;1.90;;;22.30;53.30;;;;;;4969391;28;20479;-85
2023/06/04 12:54:39;;;;;;;2.07;1.80;;;22.40;53.60;;;;;;4953121;28;20454;-87
2023/06/04 12:57:06;;;;;;;1.70;1.60;;;22.50;52.00;;;;;;4964149;28;20453;-82
2023/06/04 12:59:35;;;;;;;2.60;1.70;;;22.50;52.90;;;;;;4955348;28;20634;-85
2023/06/04 13:02:02;;;;;;;2.60;2.00;;;22.40;53.70;;;;;;5090039;23;20476;-82
2023/06/04 13:04:29;;;;;;;2.00;1.83;;;22.30;53.00;;;;;;4964058;28;20442;-84